Time;durP1;ratioP1;P1;durP2;ratioP2;P2;SDS_P1;SDS_P2;PMS_P1;PMS_P2;Temp;Humidity;BMP_temperature;BMP_pressure;BME280_temperature;BME280_humidity;BME280_pressure;Samples;Min_cycle;Max_cycle;Signal;HPM_P1;HPM_P2
2023/03/05 00:02:15;;;;;;;29.45;10.48;;;;;;;;;;5020523;28;20187;-76
2023/03/05 00:04:41;;;;;;;28.45;10.82;;;;;;;;;;5020641;28;20075;-76
2023/03/05 00:07:11;;;;;;;35.80;11.48;;;;;;;;;;5025868;28;20044;-76
2023/03/05 00:09:39;;;;;;;27.50;10.38;;;;;;;;;;5030044;28;20096;-76
2023/03/05 00:12:06;;;;;;;26.85;10.55;;;;;;;;;;5026992;28;20041;-77
2023/03/05 00:14:31;;;;;;;34.78;10.80;;;;;;;;;;5032519;28;20387;-76
2023/03/05 00:16:57;;;;;;;28.33;10.48;;;;;;;;;;5029442;28;20028;-76
2023/03/05 00:19:23;;;;;;;28.30;10.77;;;;;;;;;;5020191;28;20399;-76
2023/03/05 00:21:51;;;;;;;26.05;9.77;;;;;;;;;;5031231;28;20037;-76
2023/03/05 00:24:17;;;;;;;24.67;10.30;;;;;;;;;;5024125;28;20061;-76
2023/03/05 00:26:44;;;;;;;26.33;10.43;;;;;;;;;;5032223;28;20057;-77
2023/03/05 00:29:17;;;;;;;25.63;9.95;;;;;;;;;;5022223;28;20025;-76
2023/03/05 00:31:43;;;;;;;27.88;10.70;;;;;;;;;;5042859;28;20029;-76
2023/03/05 00:34:12;;;;;;;25.08;10.25;;;;;;;;;;5021603;28;20025;-76
2023/03/05 00:36:42;;;;;;;24.67;9.43;;;;;;;;;;5027574;28;20029;-76
2023/03/05 00:39:08;;;;;;;26.15;10.20;;;;;;;;;;5018566;28;20076;-78
2023/03/05 00:41:34;;;;;;;24.05;9.63;;;;;;;;;;5031876;28;20021;-77
2023/03/05 00:44:00;;;;;;;22.58;8.93;;;;;;;;;;5022505;28;20120;-75
2023/03/05 00:46:26;;;;;;;22.13;8.68;;;;;;;;;;5022353;28;20017;-78
2023/03/05 00:48:52;;;;;;;23.83;10.05;;;;;;;;;;5014839;28;20377;-77
2023/03/05 00:51:19;;;;;;;29.02;10.90;;;;;;;;;;5015390;28;20163;-77
2023/03/05 00:53:44;;;;;;;29.27;10.70;;;;;;;;;;5025986;28;20032;-75
2023/03/05 00:56:10;;;;;;;26.33;9.93;;;;;;;;;;5015572;28;20420;-77
2023/03/05 00:58:36;;;;;;;20.63;8.85;;;;;;;;;;5017920;28;20030;-77
2023/03/05 01:01:03;;;;;;;26.60;9.82;;;;;;;;;;5026470;28;20496;-76
2023/03/05 01:03:33;;;;;;;25.63;9.15;;;;;;;;;;5022127;28;20026;-75
2023/03/05 01:05:59;;;;;;;26.63;10.18;;;;;;;;;;5023719;28;20444;-76
2023/03/05 01:08:25;;;;;;;23.15;8.85;;;;;;;;;;5028592;28;20480;-77
2023/03/05 01:10:53;;;;;;;25.42;8.90;;;;;;;;;;5033140;28;20084;-76
2023/03/05 01:13:20;;;;;;;30.15;9.80;;;;;;;;;;5049997;28;20638;-76
2023/03/05 01:15:47;;;;;;;27.50;9.57;;;;;;;;;;5041330;28;20021;-76
2023/03/05 01:18:15;;;;;;;29.70;11.35;;;;;;;;;;5013615;28;20053;-76
2023/03/05 01:20:45;;;;;;;30.83;11.40;;;;;;;;;;5014740;28;20475;-75
2023/03/05 01:23:10;;;;;;;28.63;10.48;;;;;;;;;;5021711;28;20116;-75
2023/03/05 01:25:36;;;;;;;28.92;10.73;;;;;;;;;;5018609;28;20105;-77
2023/03/05 01:28:03;;;;;;;21.88;9.25;;;;;;;;;;5027554;28;20028;-77
2023/03/05 01:30:32;;;;;;;25.55;10.02;;;;;;;;;;5028997;28;20112;-75
2023/03/05 01:32:57;;;;;;;24.58;9.02;;;;;;;;;;5025364;28;20080;-76
2023/03/05 01:35:25;;;;;;;24.13;9.18;;;;;;;;;;5020866;28;20025;-75
2023/03/05 01:37:51;;;;;;;24.30;9.32;;;;;;;;;;5027194;28;20484;-76
2023/03/05 01:40:26;;;;;;;26.77;9.57;;;;;;;;;;5023660;28;20029;-77
2023/03/05 01:43:12;;;;;;;27.30;8.88;;;;;;;;;;5014783;28;20116;-75
2023/03/05 01:46:00;;;;;;;25.88;9.07;;;;;;;;;;5016871;28;20017;-76
2023/03/05 01:48:29;;;;;;;25.80;8.57;;;;;;;;;;5028393;28;20124;-77
2023/03/05 01:50:56;;;;;;;23.55;9.25;;;;;;;;;;5030288;28;20108;-76
2023/03/05 01:53:22;;;;;;;25.35;8.63;;;;;;;;;;5020135;28;20029;-77
2023/03/05 01:55:48;;;;;;;23.75;8.93;;;;;;;;;;5011129;28;20405;-77
2023/03/05 01:58:13;;;;;;;26.40;9.35;;;;;;;;;;5030431;28;20106;-77
2023/03/05 02:00:47;;;;;;;24.63;9.18;;;;;;;;;;5023852;28;20025;-77
2023/03/05 02:03:13;;;;;;;25.52;9.73;;;;;;;;;;5022475;28;20026;-77
2023/03/05 02:05:42;;;;;;;24.80;9.60;;;;;;;;;;5025595;28;20083;-76
2023/03/05 02:08:11;;;;;;;23.63;9.93;;;;;;;;;;5024099;28;20112;-76
2023/03/05 02:10:48;;;;;;;24.48;9.23;;;;;;;;;;5032525;28;20017;-76
2023/03/05 02:13:18;;;;;;;25.95;8.93;;;;;;;;;;5025937;28;20506;-76
2023/03/05 02:15:46;;;;;;;26.25;10.07;;;;;;;;;;5030325;28;20052;-75
2023/03/05 02:18:12;;;;;;;23.90;8.50;;;;;;;;;;5028038;28;20032;-77
2023/03/05 02:20:51;;;;;;;23.13;9.23;;;;;;;;;;5034387;28;20029;-77
2023/03/05 02:23:21;;;;;;;25.02;8.73;;;;;;;;;;5027271;28;20432;-76
2023/03/05 02:25:52;;;;;;;23.83;9.07;;;;;;;;;;5031993;28;20112;-76
2023/03/05 02:28:24;;;;;;;23.95;8.73;;;;;;;;;;5023171;28;20030;-76
2023/03/05 02:30:50;;;;;;;23.05;9.05;;;;;;;;;;5018300;28;20229;-77
2023/03/05 02:33:16;;;;;;;26.80;10.05;;;;;;;;;;5027837;28;20135;-77
2023/03/05 02:35:45;;;;;;;23.08;9.63;;;;;;;;;;5018733;28;20043;-77
2023/03/05 02:38:16;;;;;;;22.70;8.65;;;;;;;;;;5032810;28;20402;-77
2023/03/05 02:40:44;;;;;;;30.17;9.00;;;;;;;;;;5026722;28;20036;-77
2023/03/05 02:43:10;;;;;;;22.75;8.82;;;;;;;;;;5024783;28;20033;-76
2023/03/05 02:45:36;;;;;;;24.77;9.52;;;;;;;;;;5025817;28;20024;-77
2023/03/05 02:48:04;;;;;;;30.77;10.65;;;;;;;;;;5025741;28;20425;-76
2023/03/05 02:50:31;;;;;;;25.35;8.68;;;;;;;;;;5016969;28;20488;-77
2023/03/05 02:52:58;;;;;;;30.40;9.70;;;;;;;;;;5024387;28;20029;-77
2023/03/05 02:55:24;;;;;;;30.52;10.25;;;;;;;;;;5024307;28;20048;-76
2023/03/05 02:57:50;;;;;;;23.58;8.70;;;;;;;;;;5033718;28;20693;-77
2023/03/05 03:00:16;;;;;;;23.58;9.63;;;;;;;;;;5022680;28;20052;-77
2023/03/05 03:02:43;;;;;;;22.70;9.27;;;;;;;;;;5021904;28;20528;-77
2023/03/05 03:05:09;;;;;;;24.50;9.07;;;;;;;;;;5018758;28;20041;-76
2023/03/05 03:07:37;;;;;;;23.33;9.30;;;;;;;;;;5019835;28;20021;-77
2023/03/05 03:10:07;;;;;;;29.67;10.55;;;;;;;;;;5020846;28;20080;-76
2023/03/05 03:12:39;;;;;;;24.60;9.20;;;;;;;;;;5020208;28;20024;-78
2023/03/05 03:15:09;;;;;;;26.48;9.65;;;;;;;;;;5032860;28;20442;-76
2023/03/05 03:17:36;;;;;;;32.75;10.75;;;;;;;;;;5017844;28;20032;-76
2023/03/05 03:20:03;;;;;;;32.35;12.77;;;;;;;;;;5026479;28;20033;-77
2023/03/05 03:22:29;;;;;;;26.17;11.38;;;;;;;;;;5029419;28;20388;-75
2023/03/05 03:24:55;;;;;;;27.90;9.98;;;;;;;;;;5029810;28;20021;-75
2023/03/05 03:27:21;;;;;;;29.55;10.02;;;;;;;;;;5030487;28;20033;-75
2023/03/05 03:29:49;;;;;;;32.15;10.60;;;;;;;;;;5020230;28;20018;-77
2023/03/05 03:32:14;;;;;;;28.45;10.18;;;;;;;;;;5031706;28;20028;-78
2023/03/05 03:34:39;;;;;;;31.30;10.45;;;;;;;;;;5021257;28;20033;-76
2023/03/05 03:37:05;;;;;;;26.48;10.30;;;;;;;;;;5023537;28;20443;-76
2023/03/05 03:39:33;;;;;;;27.80;10.43;;;;;;;;;;5030947;28;20021;-76
2023/03/05 03:41:58;;;;;;;28.10;10.50;;;;;;;;;;5023689;28;20105;-76
2023/03/05 03:44:24;;;;;;;25.55;10.23;;;;;;;;;;5024044;28;20101;-76
2023/03/05 03:46:50;;;;;;;33.47;10.73;;;;;;;;;;5018032;28;20432;-76
2023/03/05 03:49:25;;;;;;;30.63;10.25;;;;;;;;;;5020322;28;20018;-76
2023/03/05 03:51:53;;;;;;;28.25;10.18;;;;;;;;;;5028564;28;20087;-76
2023/03/05 03:54:19;;;;;;;26.83;9.13;;;;;;;;;;5025118;28;20439;-77
2023/03/05 03:56:47;;;;;;;33.45;11.32;;;;;;;;;;5031190;28;20552;-76
2023/03/05 03:59:13;;;;;;;30.05;10.32;;;;;;;;;;5021979;28;20397;-77
2023/03/05 04:01:38;;;;;;;28.95;10.45;;;;;;;;;;5025714;28;20534;-76
2023/03/05 04:04:07;;;;;;;31.95;10.98;;;;;;;;;;5023017;28;20025;-77
2023/03/05 04:06:35;;;;;;;31.47;12.53;;;;;;;;;;5017466;28;20022;-76
2023/03/05 04:09:00;;;;;;;31.25;11.27;;;;;;;;;;5026493;28;20026;-76
2023/03/05 04:11:26;;;;;;;35.00;11.45;;;;;;;;;;5024086;28;20032;-76
2023/03/05 04:13:51;;;;;;;34.72;11.40;;;;;;;;;;5032204;28;20017;-76
2023/03/05 04:16:18;;;;;;;35.28;12.05;;;;;;;;;;5026935;28;20084;-76
2023/03/05 04:18:44;;;;;;;32.90;12.43;;;;;;;;;;5015942;28;20398;-77
2023/03/05 04:21:10;;;;;;;28.83;10.75;;;;;;;;;;5025468;28;20457;-76
2023/03/05 04:23:38;;;;;;;29.70;11.70;;;;;;;;;;5032014;28;20100;-77
2023/03/05 04:26:03;;;;;;;30.65;11.25;;;;;;;;;;5036689;28;20028;-77
2023/03/05 04:28:29;;;;;;;34.60;11.13;;;;;;;;;;5037769;28;20234;-76
2023/03/05 04:30:55;;;;;;;33.50;11.82;;;;;;;;;;5030991;28;20029;-76
2023/03/05 04:33:20;;;;;;;32.58;12.45;;;;;;;;;;5027520;28;20018;-76
2023/03/05 04:35:45;;;;;;;27.27;10.25;;;;;;;;;;5020470;28;20143;-76
2023/03/05 04:38:11;;;;;;;29.88;10.07;;;;;;;;;;5023805;28;20025;-77
2023/03/05 04:40:38;;;;;;;26.88;10.77;;;;;;;;;;5030908;28;20112;-77
2023/03/05 04:43:03;;;;;;;27.90;10.10;;;;;;;;;;5025457;28;20389;-76
2023/03/05 04:45:29;;;;;;;32.25;11.38;;;;;;;;;;5015842;28;20211;-76
2023/03/05 04:47:57;;;;;;;28.77;10.43;;;;;;;;;;5023084;28;20018;-76
2023/03/05 04:50:22;;;;;;;34.28;11.38;;;;;;;;;;5025807;28;20029;-77
2023/03/05 04:52:48;;;;;;;32.78;12.55;;;;;;;;;;5029938;28;20522;-75
2023/03/05 04:55:18;;;;;;;37.88;11.85;;;;;;;;;;5027194;28;20032;-77
2023/03/05 04:57:43;;;;;;;;;;;;;;;;;;5020604;28;20024;-77
2023/03/05 05:00:15;;;;;;;31.98;11.55;;;;;;;;;;5028216;28;19913;-76
2023/03/05 05:02:44;;;;;;;39.33;12.25;;;;;;;;;;5031945;28;20484;-77
2023/03/05 05:05:15;;;;;;;36.33;12.13;;;;;;;;;;5030763;28;20025;-76
2023/03/05 05:07:40;;;;;;;32.63;11.38;;;;;;;;;;5012179;28;20500;-76
2023/03/05 05:10:07;;;;;;;32.88;12.50;;;;;;;;;;5027481;28;20032;-76
2023/03/05 05:12:32;;;;;;;34.78;11.88;;;;;;;;;;5029597;28;20025;-78
2023/03/05 05:14:58;;;;;;;39.28;13.68;;;;;;;;;;5026246;28;20059;-78
2023/03/05 05:17:29;;;;;;;41.42;13.95;;;;;;;;;;5031201;28;20522;-77
2023/03/05 05:19:55;;;;;;;38.63;13.40;;;;;;;;;;5030164;28;20025;-78
2023/03/05 05:22:24;;;;;;;38.90;13.52;;;;;;;;;;5031106;28;20048;-76
2023/03/05 05:24:50;;;;;;;37.97;13.55;;;;;;;;;;5030485;28;20029;-76
2023/03/05 05:27:15;;;;;;;34.30;12.63;;;;;;;;;;5029689;28;20047;-78
2023/03/05 05:29:41;;;;;;;40.42;13.20;;;;;;;;;;5021800;28;20045;-75
2023/03/05 05:32:06;;;;;;;31.75;12.30;;;;;;;;;;5011238;28;20026;-76
2023/03/05 05:34:32;;;;;;;42.35;14.85;;;;;;;;;;5020982;28;20035;-77
2023/03/05 05:36:57;;;;;;;42.97;14.70;;;;;;;;;;5022083;28;20056;-78
2023/03/05 05:39:23;;;;;;;40.47;14.48;;;;;;;;;;5019526;28;20026;-78
2023/03/05 05:41:54;;;;;;;44.47;13.35;;;;;;;;;;5028558;28;20044;-77
2023/03/05 05:44:19;;;;;;;39.67;13.55;;;;;;;;;;5021844;28;20120;-77
2023/03/05 05:46:45;;;;;;;44.22;15.15;;;;;;;;;;5025055;28;20520;-78
2023/03/05 05:49:10;;;;;;;38.20;13.38;;;;;;;;;;5018342;28;20083;-78
2023/03/05 05:51:38;;;;;;;42.50;15.02;;;;;;;;;;5022037;28;20067;-77
2023/03/05 05:54:09;;;;;;;40.30;14.25;;;;;;;;;;5022481;28;20053;-78
2023/03/05 05:56:34;;;;;;;42.03;13.95;;;;;;;;;;5035636;28;20111;-77
2023/03/05 05:59:02;;;;;;;44.30;15.57;;;;;;;;;;5032889;28;20057;-76
2023/03/05 06:01:30;;;;;;;38.88;13.32;;;;;;;;;;5032908;28;20029;-77
2023/03/05 06:03:56;;;;;;;42.50;14.73;;;;;;;;;;5031156;28;20120;-77
2023/03/05 06:06:23;;;;;;;44.75;16.38;;;;;;;;;;5036909;28;20111;-77
2023/03/05 06:08:49;;;;;;;42.08;13.13;;;;;;;;;;5030448;28;20105;-76
2023/03/05 06:11:15;;;;;;;40.22;13.60;;;;;;;;;;5029422;28;20029;-75
2023/03/05 06:13:43;;;;;;;42.60;14.65;;;;;;;;;;5025540;28;20032;-76
2023/03/05 06:16:12;;;;;;;45.67;13.63;;;;;;;;;;5032546;28;20029;-75
2023/03/05 06:18:40;;;;;;;44.55;15.10;;;;;;;;;;5024373;28;20499;-77
2023/03/05 06:21:09;;;;;;;43.95;14.18;;;;;;;;;;5025477;28;20033;-75
2023/03/05 06:23:34;;;;;;;47.28;14.95;;;;;;;;;;5032219;28;20029;-76
2023/03/05 06:26:04;;;;;;;38.13;13.55;;;;;;;;;;5035625;28;20036;-76
2023/03/05 06:28:31;;;;;;;43.75;15.85;;;;;;;;;;5029214;28;20149;-76
2023/03/05 06:31:14;;;;;;;43.40;15.25;;;;;;;;;;5032490;28;20025;-74
2023/03/05 06:33:40;;;;;;;48.17;15.80;;;;;;;;;;5031411;28;20030;-76
2023/03/05 06:36:08;;;;;;;47.15;16.25;;;;;;;;;;5032006;28;20044;-75
2023/03/05 06:38:35;;;;;;;42.75;14.35;;;;;;;;;;5032934;28;20104;-76
2023/03/05 06:41:04;;;;;;;40.13;14.90;;;;;;;;;;5036723;28;20049;-76
2023/03/05 06:43:32;;;;;;;43.20;15.65;;;;;;;;;;5035671;28;20412;-75
2023/03/05 06:46:07;;;;;;;45.08;14.73;;;;;;;;;;5022116;28;20056;-76
2023/03/05 06:48:33;;;;;;;42.08;14.50;;;;;;;;;;5020647;28;20044;-75
2023/03/05 06:50:59;;;;;;;40.88;13.68;;;;;;;;;;5027412;28;20110;-76
2023/03/05 06:53:24;;;;;;;45.85;15.40;;;;;;;;;;5025874;28;20392;-75
2023/03/05 06:55:52;;;;;;;48.13;15.27;;;;;;;;;;5024984;28;20033;-75
2023/03/05 06:58:17;;;;;;;41.53;15.30;;;;;;;;;;5031897;28;20029;-76
2023/03/05 07:00:43;;;;;;;43.63;15.38;;;;;;;;;;5022681;28;20040;-76
2023/03/05 07:03:09;;;;;;;42.53;14.35;;;;;;;;;;5027297;28;20029;-77
2023/03/05 07:05:41;;;;;;;46.72;14.95;;;;;;;;;;5019081;28;20026;-76
2023/03/05 07:08:07;;;;;;;44.83;14.20;;;;;;;;;;5017962;28;20022;-76
2023/03/05 07:10:41;;;;;;;41.30;14.15;;;;;;;;;;5032729;28;20024;-77
2023/03/05 07:13:08;;;;;;;52.50;15.70;;;;;;;;;;5026243;28;20081;-76
2023/03/05 07:15:37;;;;;;;55.00;18.35;;;;;;;;;;5021189;28;20021;-76
2023/03/05 07:18:02;;;;;;;66.18;20.98;;;;;;;;;;5021111;28;20397;-76
2023/03/05 07:20:28;;;;;;;65.65;22.30;;;;;;;;;;5023968;28;20032;-77
2023/03/05 07:22:54;;;;;;;58.22;17.10;;;;;;;;;;5030604;28;20029;-76
2023/03/05 07:25:20;;;;;;;54.60;16.48;;;;;;;;;;5022425;28;20083;-77
2023/03/05 07:27:47;;;;;;;55.97;17.27;;;;;;;;;;5021222;28;20097;-77
2023/03/05 07:30:13;;;;;;;49.28;16.23;;;;;;;;;;5026722;28;20018;-75
2023/03/05 07:32:39;;;;;;;46.92;15.52;;;;;;;;;;5025460;28;20029;-77
2023/03/05 07:35:08;;;;;;;45.67;15.10;;;;;;;;;;5023126;28;20028;-78
2023/03/05 07:37:34;;;;;;;46.73;14.90;;;;;;;;;;5021275;28;20566;-77
2023/03/05 07:39:59;;;;;;;49.92;16.58;;;;;;;;;;5019100;28;20088;-74
2023/03/05 07:42:30;;;;;;;52.10;16.20;;;;;;;;;;5031128;28;20022;-78
2023/03/05 07:44:56;;;;;;;47.88;16.40;;;;;;;;;;5024631;28;20025;-77
2023/03/05 07:47:22;;;;;;;44.83;14.48;;;;;;;;;;5020391;28;20029;-76
2023/03/05 07:49:49;;;;;;;48.28;15.73;;;;;;;;;;5012120;28;20052;-76
2023/03/05 07:52:14;;;;;;;51.30;16.05;;;;;;;;;;5024999;28;20078;-76
2023/03/05 07:54:42;;;;;;;49.92;16.83;;;;;;;;;;5026493;28;20030;-75
2023/03/05 07:57:11;;;;;;;47.65;16.38;;;;;;;;;;5018778;28;20076;-76
2023/03/05 07:59:41;;;;;;;62.90;20.63;;;;;;;;;;5032684;28;20029;-76
2023/03/05 08:02:14;;;;;;;56.25;16.77;;;;;;;;;;5026606;28;20467;-75
2023/03/05 08:04:43;;;;;;;50.58;16.23;;;;;;;;;;5020630;28;20025;-77
2023/03/05 08:07:09;;;;;;;50.05;15.10;;;;;;;;;;5020561;28;20044;-77
2023/03/05 08:09:36;;;;;;;44.67;14.15;;;;;;;;;;5024898;28;20025;-76
2023/03/05 08:12:02;;;;;;;50.45;15.50;;;;;;;;;;5025421;28;20492;-75
2023/03/05 08:14:33;;;;;;;50.40;15.48;;;;;;;;;;5026477;28;20033;-76
2023/03/05 08:16:58;;;;;;;45.75;16.33;;;;;;;;;;5022419;28;20496;-76
2023/03/05 08:19:24;;;;;;;46.85;16.25;;;;;;;;;;5025276;28;20072;-74
2023/03/05 08:21:50;;;;;;;54.78;17.40;;;;;;;;;;5030643;28;20500;-75
2023/03/05 08:24:18;;;;;;;54.72;16.75;;;;;;;;;;5018985;28;20029;-77
2023/03/05 08:26:44;;;;;;;50.33;16.08;;;;;;;;;;5029016;28;20036;-77
2023/03/05 08:29:10;;;;;;;59.20;16.63;;;;;;;;;;5022474;28;20029;-77
2023/03/05 08:31:37;;;;;;;50.47;15.27;;;;;;;;;;5030359;28;20029;-76
2023/03/05 08:34:03;;;;;;;52.22;18.75;;;;;;;;;;5030534;28;20028;-76
2023/03/05 08:36:29;;;;;;;55.20;16.15;;;;;;;;;;5021259;28;20026;-76
2023/03/05 08:38:55;;;;;;;55.90;17.33;;;;;;;;;;5028925;28;20033;-75
2023/03/05 08:41:21;;;;;;;52.47;16.85;;;;;;;;;;5027549;28;20060;-76
2023/03/05 08:43:46;;;;;;;45.88;14.90;;;;;;;;;;5025885;28;20444;-76
2023/03/05 08:46:13;;;;;;;52.78;16.60;;;;;;;;;;5029765;28;20025;-76
2023/03/05 08:48:42;;;;;;;58.75;18.55;;;;;;;;;;5017470;28;20029;-76
2023/03/05 08:51:12;;;;;;;59.20;18.90;;;;;;;;;;5023011;28;20037;-76
2023/03/05 08:53:42;;;;;;;50.22;17.33;;;;;;;;;;5020987;28;20022;-76
2023/03/05 08:56:08;;;;;;;48.65;16.35;;;;;;;;;;5030559;28;20439;-76
2023/03/05 08:58:34;;;;;;;56.63;18.83;;;;;;;;;;5020570;28;20430;-75
2023/03/05 09:01:00;;;;;;;60.90;18.50;;;;;;;;;;5024364;28;20036;-75
2023/03/05 09:03:26;;;;;;;54.97;18.60;;;;;;;;;;5021606;28;20076;-74
2023/03/05 09:05:51;;;;;;;52.95;16.45;;;;;;;;;;5026916;28;20073;-76
2023/03/05 09:08:18;;;;;;;51.83;17.83;;;;;;;;;;5025978;28;20472;-76
2023/03/05 09:10:46;;;;;;;51.42;17.52;;;;;;;;;;5017175;28;20029;-75
2023/03/05 09:13:11;;;;;;;55.75;17.13;;;;;;;;;;5022713;28;20018;-76
2023/03/05 09:15:38;;;;;;;55.10;17.40;;;;;;;;;;5017720;28;20021;-75
2023/03/05 09:18:07;;;;;;;52.15;18.17;;;;;;;;;;5028940;28;20029;-76
2023/03/05 09:20:34;;;;;;;46.80;17.67;;;;;;;;;;5021002;28;20024;-76
2023/03/05 09:23:00;;;;;;;58.25;19.13;;;;;;;;;;5026494;28;20099;-77
2023/03/05 09:25:27;;;;;;;62.92;20.23;;;;;;;;;;5032388;28;20017;-77
2023/03/05 09:27:54;;;;;;;54.15;18.73;;;;;;;;;;5026256;28;21390;-75
2023/03/05 09:30:20;;;;;;;65.90;19.85;;;;;;;;;;5029664;28;20476;-75
2023/03/05 09:32:45;;;;;;;51.70;17.52;;;;;;;;;;5030403;28;20072;-77
2023/03/05 09:35:12;;;;;;;53.25;17.67;;;;;;;;;;5028083;28;20047;-76
2023/03/05 09:37:38;;;;;;;51.65;19.15;;;;;;;;;;5023997;28;20389;-77
2023/03/05 09:40:04;;;;;;;55.28;19.05;;;;;;;;;;5014466;28;20121;-75
2023/03/05 09:42:48;;;;;;;56.33;18.92;;;;;;;;;;5030071;28;20075;-77
2023/03/05 09:45:27;;;;;;;51.00;17.85;;;;;;;;;;5021127;28;20033;-77
2023/03/05 09:48:25;;;;;;;60.83;19.45;;;;;;;;;;5021271;28;20083;-77
2023/03/05 09:51:02;;;;;;;61.10;18.42;;;;;;;;;;5028321;28;20562;-76
2023/03/05 09:53:41;;;;;;;56.83;18.52;;;;;;;;;;5014085;28;20033;-78
2023/03/05 09:56:28;;;;;;;55.55;17.90;;;;;;;;;;5020251;28;20400;-76
2023/03/05 09:59:02;;;;;;;55.05;18.02;;;;;;;;;;5030105;28;20048;-76
2023/03/05 10:01:40;;;;;;;53.63;19.25;;;;;;;;;;5020466;28;20098;-75
2023/03/05 10:04:32;;;;;;;63.83;19.27;;;;;;;;;;5027492;28;20025;-75
2023/03/05 10:07:29;;;;;;;58.55;18.98;;;;;;;;;;5030539;28;20266;-74
2023/03/05 10:09:59;;;;;;;54.92;19.33;;;;;;;;;;5031524;28;20029;-78
2023/03/05 10:12:33;;;;;;;;;;;;;;;;;;5019789;28;20029;-76
2023/03/05 10:15:01;;;;;;;56.33;18.55;;;;;;;;;;5018964;28;19910;-76
2023/03/05 10:18:19;;;;;;;56.08;18.65;;;;;;;;;;5013674;28;20022;-75
2023/03/05 10:20:56;;;;;;;58.45;20.15;;;;;;;;;;5013917;28;20436;-76
2023/03/05 10:23:28;;;;;;;56.35;19.17;;;;;;;;;;5025688;28;20022;-77
2023/03/05 10:26:07;;;;;;;50.53;17.58;;;;;;;;;;5026661;28;20039;-77
2023/03/05 10:28:38;;;;;;;56.80;18.52;;;;;;;;;;5018972;28;20022;-77
2023/03/05 10:31:20;;;;;;;54.75;18.33;;;;;;;;;;5025209;28;20493;-77
2023/03/05 10:34:20;;;;;;;49.55;17.98;;;;;;;;;;5013563;28;20104;-77
2023/03/05 10:36:54;;;;;;;56.88;18.55;;;;;;;;;;5024692;28;20017;-77
2023/03/05 10:39:59;;;;;;;57.17;18.85;;;;;;;;;;5026326;28;20030;-76
2023/03/05 10:43:00;;;;;;;55.78;17.88;;;;;;;;;;5019025;28;20021;-76
2023/03/05 10:45:53;;;;;;;49.85;16.98;;;;;;;;;;5014522;28;20060;-76
2023/03/05 10:48:32;;;;;;;55.67;18.40;;;;;;;;;;5014431;28;20108;-76
2023/03/05 10:51:11;;;;;;;54.58;18.85;;;;;;;;;;5028244;28;20026;-75
2023/03/05 10:53:45;;;;;;;56.40;18.17;;;;;;;;;;5025417;28;20483;-76
2023/03/05 10:56:11;;;;;;;61.50;19.60;;;;;;;;;;5026251;28;20186;-75
2023/03/05 10:58:37;;;;;;;51.88;17.88;;;;;;;;;;5024920;28;20026;-75
2023/03/05 11:01:09;;;;;;;50.83;17.10;;;;;;;;;;5025340;28;20514;-76
2023/03/05 11:04:04;;;;;;;52.17;18.20;;;;;;;;;;5026930;28;20037;-76
2023/03/05 11:06:44;;;;;;;53.38;18.02;;;;;;;;;;5022357;28;20032;-76
2023/03/05 11:09:19;;;;;;;;;;;;;;;;;;5031474;28;20040;-76
2023/03/05 11:12:09;;;;;;;72.97;19.63;;;;;;;;;;5028650;28;19974;-75
2023/03/05 11:14:38;;;;;;;56.67;19.23;;;;;;;;;;5027806;28;20059;-76
2023/03/05 11:17:26;;;;;;;80.95;25.48;;;;;;;;;;5031810;28;20060;-76
2023/03/05 11:19:54;;;;;;;104.28;32.00;;;;;;;;;;5031437;28;20037;-75
2023/03/05 11:22:25;;;;;;;109.50;32.13;;;;;;;;;;5031089;28;20060;-77
2023/03/05 11:25:20;;;;;;;87.28;25.17;;;;;;;;;;5025740;28;20040;-76
2023/03/05 11:27:50;;;;;;;65.22;22.10;;;;;;;;;;5022924;28;20029;-76
2023/03/05 11:30:26;;;;;;;64.20;22.35;;;;;;;;;;5020577;28;20029;-76
2023/03/05 11:33:16;;;;;;;51.15;18.95;;;;;;;;;;5018741;28;20102;-76
2023/03/05 11:35:45;;;;;;;50.85;18.10;;;;;;;;;;5024650;28;20395;-77
2023/03/05 11:38:17;;;;;;;47.47;17.25;;;;;;;;;;5025931;28;20021;-77
2023/03/05 11:40:44;;;;;;;48.80;17.45;;;;;;;;;;5025688;28;20028;-76
2023/03/05 11:43:15;;;;;;;54.58;18.25;;;;;;;;;;5030367;28;20083;-79
2023/03/05 11:45:42;;;;;;;46.67;18.58;;;;;;;;;;5026331;28;20096;-74
2023/03/05 11:48:16;;;;;;;45.50;16.40;;;;;;;;;;5018444;28;20455;-78
2023/03/05 11:50:44;;;;;;;54.90;17.15;;;;;;;;;;5025848;28;20018;-77
2023/03/05 11:53:31;;;;;;;45.92;17.02;;;;;;;;;;5021614;28;20029;-78
2023/03/05 11:56:11;;;;;;;40.60;16.10;;;;;;;;;;5016875;28;20029;-77
2023/03/05 11:59:00;;;;;;;42.60;16.20;;;;;;;;;;5017363;28;20631;-78
2023/03/05 12:01:31;;;;;;;37.37;13.93;;;;;;;;;;5027838;28;20092;-77
2023/03/05 12:03:57;;;;;;;44.83;16.50;;;;;;;;;;5030391;28;20731;-76
2023/03/05 12:06:51;;;;;;;42.42;15.43;;;;;;;;;;5031759;28;20033;-77
2023/03/05 12:09:40;;;;;;;41.28;15.93;;;;;;;;;;5023911;28;20046;-77
2023/03/05 12:12:19;;;;;;;40.90;16.77;;;;;;;;;;5022914;28;20029;-77
2023/03/05 12:14:55;;;;;;;47.65;16.65;;;;;;;;;;5023534;28;20104;-77
2023/03/05 12:17:30;;;;;;;46.00;17.00;;;;;;;;;;5030079;28;20079;-75
2023/03/05 12:20:05;;;;;;;40.50;15.68;;;;;;;;;;5019714;28;20104;-77
2023/03/05 12:22:39;;;;;;;44.33;16.50;;;;;;;;;;5025070;28;20018;-77
2023/03/05 12:25:26;;;;;;;45.47;16.20;;;;;;;;;;5027611;28;20033;-76
2023/03/05 12:27:55;;;;;;;41.63;16.48;;;;;;;;;;5025099;28;20049;-77
2023/03/05 12:30:34;;;;;;;43.55;17.02;;;;;;;;;;5025274;28;20376;-77
2023/03/05 12:33:02;;;;;;;43.97;15.48;;;;;;;;;;5030437;28;20032;-77
2023/03/05 12:35:37;;;;;;;39.25;15.02;;;;;;;;;;5027935;28;20021;-78
2023/03/05 12:38:37;;;;;;;38.80;14.68;;;;;;;;;;5039966;28;20083;-76
2023/03/05 12:41:23;;;;;;;41.22;15.32;;;;;;;;;;5051166;28;20053;-76
2023/03/05 12:44:04;;;;;;;39.40;15.30;;;;;;;;;;5017355;28;20033;-76
2023/03/05 12:46:36;;;;;;;37.97;15.50;;;;;;;;;;5029715;28;20025;-78
2023/03/05 12:49:25;;;;;;;36.15;13.95;;;;;;;;;;5017980;28;20037;-77
2023/03/05 12:51:59;;;;;;;39.50;15.75;;;;;;;;;;5027246;28;20702;-74
2023/03/05 12:54:33;;;;;;;38.15;14.82;;;;;;;;;;5031583;28;20041;-77
2023/03/05 12:57:05;;;;;;;38.65;15.25;;;;;;;;;;5029102;28;20495;-77
2023/03/05 13:00:09;;;;;;;44.10;15.52;;;;;;;;;;5022417;28;20057;-76
2023/03/05 13:02:45;;;;;;;41.90;16.27;;;;;;;;;;5022631;28;20026;-76
2023/03/05 13:05:25;;;;;;;39.65;12.77;;;;;;;;;;5022843;28;20518;-77
2023/03/05 13:07:52;;;;;;;41.83;16.08;;;;;;;;;;5024828;28;20040;-76
2023/03/05 13:10:27;;;;;;;46.28;16.95;;;;;;;;;;5020990;28;20411;-76
2023/03/05 13:12:58;;;;;;;37.03;16.17;;;;;;;;;;5031397;28;20037;-75
2023/03/05 13:15:25;;;;;;;41.65;16.30;;;;;;;;;;5029620;28;20028;-76
2023/03/05 13:17:59;;;;;;;35.78;15.40;;;;;;;;;;5023475;28;20022;-76
2023/03/05 13:20:25;;;;;;;44.25;16.10;;;;;;;;;;5027616;28;20440;-76
2023/03/05 13:23:10;;;;;;;37.88;15.75;;;;;;;;;;5022289;28;20083;-76
2023/03/05 13:25:36;;;;;;;49.97;18.42;;;;;;;;;;5024038;28;20104;-77
2023/03/05 13:28:06;;;;;;;45.08;18.77;;;;;;;;;;5019744;28;20036;-76
2023/03/05 13:30:35;;;;;;;56.67;25.33;;;;;;;;;;5020566;28;20017;-76
2023/03/05 13:33:05;;;;;;;47.77;15.57;;;;;;;;;;5024007;28;20396;-75
2023/03/05 13:35:31;;;;;;;;;;;;;;;;;;5027264;28;20033;-76
2023/03/05 13:37:58;;;;;;;38.63;14.90;;;;;;;;;;5019247;28;19909;-76
2023/03/05 13:40:28;;;;;;;47.47;15.75;;;;;;;;;;5021505;28;20106;-75
2023/03/05 13:42:55;;;;;;;40.63;16.52;;;;;;;;;;5029238;28;20041;-76
2023/03/05 13:45:29;;;;;;;42.65;16.17;;;;;;;;;;5030388;28;20033;-76
2023/03/05 13:48:01;;;;;;;58.75;22.73;;;;;;;;;;5015854;28;20034;-75
2023/03/05 13:50:35;;;;;;;54.83;20.48;;;;;;;;;;5022331;28;20093;-75
2023/03/05 13:53:28;;;;;;;51.20;19.33;;;;;;;;;;5029974;28;20030;-77
2023/03/05 13:56:02;;;;;;;44.70;18.25;;;;;;;;;;5018926;28;20018;-77
2023/03/05 13:58:47;;;;;;;42.55;17.00;;;;;;;;;;5015267;28;20087;-76
2023/03/05 14:01:28;;;;;;;39.47;16.77;;;;;;;;;;5020998;28;20026;-76
2023/03/05 14:04:19;;;;;;;44.00;15.27;;;;;;;;;;5020303;28;20025;-77
2023/03/05 14:07:02;;;;;;;44.83;18.33;;;;;;;;;;5019432;28;20037;-76
2023/03/05 14:09:55;;;;;;;44.75;18.58;;;;;;;;;;5022824;28;20018;-78
2023/03/05 14:12:39;;;;;;;42.10;16.63;;;;;;;;;;5023510;28;20029;-75
2023/03/05 14:15:25;;;;;;;35.50;15.60;;;;;;;;;;5021363;28;20500;-76
2023/03/05 14:18:15;;;;;;;46.53;18.10;;;;;;;;;;5022549;28;20449;-77
2023/03/05 14:21:09;;;;;;;77.32;26.63;;;;;;;;;;5024402;28;20548;-76
2023/03/05 14:23:42;;;;;;;53.10;20.70;;;;;;;;;;5023760;28;20045;-75
2023/03/05 14:26:17;;;;;;;44.67;17.63;;;;;;;;;;5025665;28;20033;-74
2023/03/05 14:28:51;;;;;;;42.95;18.25;;;;;;;;;;5020453;28;20048;-77
2023/03/05 14:31:18;;;;;;;46.90;18.55;;;;;;;;;;5026284;28;20018;-77
2023/03/05 14:33:44;;;;;;;47.42;18.90;;;;;;;;;;5026517;28;20036;-75
2023/03/05 14:36:10;;;;;;;53.22;20.63;;;;;;;;;;5022587;28;20048;-75
2023/03/05 14:42:19;;;;;;;57.83;21.52;;;;;;;;;;5002859;28;20121;-76
2023/03/05 14:44:45;;;;;;;55.03;20.13;;;;;;;;;;5022903;28;20033;-76
2023/03/05 14:47:15;;;;;;;47.42;18.95;;;;;;;;;;5021780;28;20124;-75